createdAt,value
2022-10-16T00:00:02.676Z,95.2
2022-10-16T00:15:02.953Z,94.9
2022-10-16T00:30:02.444Z,94.9
2022-10-16T00:45:02.796Z,94.8
2022-10-16T01:00:03.264Z,94.8
2022-10-16T01:15:02.722Z,94.9
2022-10-16T01:30:03.119Z,95.0
2022-10-16T01:45:02.716Z,95.2
2022-10-16T02:00:03.060Z,95.2
2022-10-16T02:15:02.702Z,95.5
2022-10-16T02:30:02.939Z,95.7
2022-10-16T02:45:02.350Z,95.9
2022-10-16T03:00:02.808Z,96.1
2022-10-16T03:15:03.245Z,96.2
2022-10-16T03:30:02.741Z,96.5
2022-10-16T03:45:03.145Z,96.7
2022-10-16T04:00:02.727Z,96.7
2022-10-16T04:15:03.023Z,96.6
2022-10-16T04:30:02.458Z,96.7
2022-10-16T04:45:02.900Z,96.7
2022-10-16T05:00:02.311Z,96.9
2022-10-16T05:15:02.822Z,96.8
2022-10-16T05:30:02.220Z,96.8
2022-10-16T05:45:02.768Z,96.8
2022-10-16T06:00:03.116Z,96.7
2022-10-16T06:15:02.771Z,96.6
2022-10-16T06:30:02.942Z,96.6
2022-10-16T06:45:02.392Z,96.7
2022-10-16T07:00:02.838Z,96.4
2022-10-16T07:15:03.275Z,96.4
2022-10-16T07:30:05.152Z,96.3
2022-10-16T07:45:03.157Z,96.2
2022-10-16T08:00:02.798Z,96.2
2022-10-16T08:15:03.038Z,95.9
2022-10-16T08:30:02.488Z,95.7
2022-10-16T08:45:02.953Z,95.1
2022-10-16T09:00:02.371Z,92.2
2022-10-16T09:15:02.817Z,86.9
2022-10-16T09:30:02.232Z,82.3
2022-10-16T09:45:02.819Z,76.1
2022-10-16T10:00:03.106Z,72.2
2022-10-16T10:15:02.561Z,72.7
2022-10-16T10:30:03.120Z,72.1
2022-10-16T10:45:02.433Z,67.0
2022-10-16T11:00:02.867Z,62.0
2022-10-16T11:15:02.289Z,63.1
2022-10-16T11:30:02.835Z,61.6
2022-10-16T11:45:03.202Z,58.2
2022-10-16T12:00:02.840Z,63.0
2022-10-16T12:15:17.465Z,59.7
2022-10-16T12:30:02.469Z,56.7
2022-10-16T12:45:02.947Z,59.6
2022-10-16T13:00:02.387Z,56.9
2022-10-16T13:15:02.866Z,58.0
2022-10-16T13:30:02.257Z,58.5
2022-10-16T13:45:02.859Z,60.9
2022-10-16T14:00:02.150Z,61.2
2022-10-16T14:15:02.575Z,62.7
2022-10-16T14:30:03.034Z,64.0
2022-10-16T14:45:02.475Z,65.4
2022-10-16T15:00:02.953Z,66.4
2022-10-16T15:15:02.332Z,68.5
2022-10-16T15:30:02.883Z,69.2
2022-10-16T15:45:02.206Z,69.8
2022-10-16T16:00:04.196Z,70.2
2022-10-16T16:15:05.648Z,70.2
2022-10-16T16:30:02.547Z,70.6
2022-10-16T16:45:02.977Z,71.4
2022-10-16T17:00:02.391Z,76.2
2022-10-16T17:15:02.901Z,79.1
2022-10-16T17:30:02.291Z,79.6
2022-10-16T17:45:02.891Z,80.7
2022-10-16T18:00:02.184Z,81.4
2022-10-16T18:15:02.636Z,81.5
2022-10-16T18:30:03.076Z,82.6
2022-10-16T18:45:02.468Z,84.6
2022-10-16T19:00:02.914Z,85.4
2022-10-16T19:15:02.351Z,85.4
2022-10-16T19:30:02.940Z,86.2
2022-10-16T19:45:02.228Z,86.2
2022-10-16T20:00:02.916Z,87.5
2022-10-16T20:15:02.128Z,88.1
2022-10-16T20:30:02.545Z,87.8
2022-10-16T20:45:02.991Z,87.8
2022-10-16T21:00:02.465Z,89.9
2022-10-16T21:15:14.316Z,90.4
2022-10-16T21:30:02.352Z,91.8
2022-10-16T21:45:02.951Z,92.6
2022-10-16T22:00:04.333Z,93.0
2022-10-16T22:15:02.666Z,93.1
2022-10-16T22:30:03.107Z,93.5
2022-10-16T22:45:02.518Z,93.5
2022-10-16T23:00:02.973Z,93.8
2022-10-16T23:15:02.410Z,93.5
2022-10-16T23:30:02.982Z,93.8
2022-10-16T23:45:02.253Z,94.1
